Time;durP1;ratioP1;P1;durP2;ratioP2;P2;SDS_P1;SDS_P2;PMS_P1;PMS_P2;Temp;Humidity;BMP_temperature;BMP_pressure;BME280_temperature;BME280_humidity;BME280_pressure;Samples;Min_cycle;Max_cycle;Signal;HPM_P1;HPM_P2
2023/08/03 00:02:23;;;;;;;0.00;0.00;;;16.00;99.90;;;;;;5112336;27;20126;-71
2023/08/03 00:04:49;;;;;;;1.60;0.43;;;16.00;99.90;;;;;;5109345;28;20050;-69
2023/08/03 00:07:15;;;;;;;0.00;0.00;;;16.00;99.90;;;;;;5093558;28;20039;-67
2023/08/03 00:09:42;;;;;;;0.75;0.60;;;16.00;99.90;;;;;;5115314;27;20049;-66
2023/08/03 00:12:09;;;;;;;0.10;0.10;;;15.90;99.90;;;;;;5130198;27;20095;-66
2023/08/03 00:14:35;;;;;;;0.10;0.10;;;15.90;99.90;;;;;;5115115;27;20051;-67
2023/08/03 00:17:01;;;;;;;0.13;0.13;;;15.90;99.90;;;;;;5110150;27;20039;-66
2023/08/03 00:19:26;;;;;;;0.10;0.10;;;15.90;99.90;;;;;;5114356;27;20534;-66
2023/08/03 00:21:52;;;;;;;0.00;0.00;;;15.90;99.90;;;;;;5099469;27;20116;-66
2023/08/03 00:24:18;;;;;;;0.10;0.10;;;15.90;99.90;;;;;;5123228;27;20038;-65
2023/08/03 00:26:44;;;;;;;0.10;0.10;;;15.90;99.90;;;;;;5107238;27;20092;-66
2023/08/03 00:29:09;;;;;;;0.17;0.17;;;15.90;99.90;;;;;;5114628;27;20055;-65
2023/08/03 00:31:35;;;;;;;0.00;0.00;;;15.90;99.90;;;;;;5110987;27;20038;-65
2023/08/03 00:34:00;;;;;;;0.10;0.10;;;15.90;99.90;;;;;;5109810;27;20039;-65
2023/08/03 00:36:26;;;;;;;0.10;0.10;;;15.90;99.90;;;;;;5115606;27;20031;-65
2023/08/03 00:38:52;;;;;;;0.00;0.00;;;15.90;99.90;;;;;;5100980;28;20096;-66
2023/08/03 00:44:58;;;;;;;0.08;0.08;;;15.90;99.90;;;;;;5118884;27;20038;-66
2023/08/03 00:47:24;;;;;;;0.10;0.10;;;15.90;99.90;;;;;;5112708;28;20436;-66
2023/08/03 00:53:31;;;;;;;0.10;0.10;;;15.90;99.90;;;;;;5114021;28;20080;-66
2023/08/03 00:55:56;;;;;;;0.10;0.10;;;15.90;99.90;;;;;;5095986;28;20492;-67
2023/08/03 00:58:22;;;;;;;0.10;0.10;;;15.90;99.90;;;;;;5095709;28;20045;-66
2023/08/03 01:00:48;;;;;;;0.32;0.17;;;15.90;99.90;;;;;;5095751;28;20028;-68
2023/08/03 01:06:54;;;;;;;0.03;0.03;;;15.90;99.90;;;;;;5120072;28;20042;-66
2023/08/03 01:09:20;;;;;;;0.20;0.20;;;15.90;99.90;;;;;;5116011;28;20043;-66
2023/08/03 01:11:46;;;;;;;0.10;0.10;;;15.90;99.90;;;;;;5116129;28;20036;-67
2023/08/03 01:14:12;;;;;;;0.00;0.00;;;15.90;99.90;;;;;;5097334;28;20398;-66
2023/08/03 01:16:37;;;;;;;0.00;0.00;;;15.90;99.90;;;;;;5112593;28;20124;-67
2023/08/03 01:19:03;;;;;;;0.13;0.13;;;15.90;99.90;;;;;;5112593;28;20132;-66
2023/08/03 01:25:11;;;;;;;0.00;0.00;;;15.90;99.90;;;;;;5113931;28;20061;-67
2023/08/03 01:27:36;;;;;;;0.10;0.10;;;15.90;99.90;;;;;;5095584;28;20032;-66
2023/08/03 01:30:03;;;;;;;0.10;0.10;;;15.90;99.90;;;;;;5095524;28;20051;-66
2023/08/03 01:32:29;;;;;;;1.25;0.52;;;16.00;99.90;;;;;;5095444;28;20414;-66
2023/08/03 01:34:55;;;;;;;0.00;0.00;;;15.90;99.90;;;;;;5129584;28;20523;-67
2023/08/03 01:37:20;;;;;;;0.00;0.00;;;15.90;99.90;;;;;;5095714;28;20067;-66
2023/08/03 01:39:46;;;;;;;0.00;0.00;;;15.90;99.90;;;;;;5112363;28;20071;-66
2023/08/03 01:42:16;;;;;;;0.00;0.00;;;15.90;99.90;;;;;;5095740;28;20032;-65
2023/08/03 01:44:42;;;;;;;0.00;0.00;;;15.90;99.90;;;;;;5111095;28;20036;-67
2023/08/03 01:47:09;;;;;;;0.47;0.28;;;15.90;99.90;;;;;;5148698;27;20477;-67
2023/08/03 01:49:35;;;;;;;0.00;0.00;;;16.00;99.90;;;;;;5103024;28;20042;-66
2023/08/03 01:52:01;;;;;;;0.10;0.10;;;15.90;99.90;;;;;;5142933;27;20039;-66
2023/08/03 01:54:27;;;;;;;0.10;0.10;;;16.00;99.90;;;;;;5146578;27;20118;-67
2023/08/03 01:56:53;;;;;;;0.38;0.38;;;16.00;99.90;;;;;;5119265;27;20084;-66
2023/08/03 01:59:19;;;;;;;0.00;0.00;;;16.00;99.90;;;;;;5107255;28;20083;-66
2023/08/03 02:01:44;;;;;;;0.10;0.10;;;16.00;99.90;;;;;;5099027;28;20071;-66
2023/08/03 02:04:10;;;;;;;0.00;0.00;;;15.90;99.90;;;;;;5099276;28;20130;-65
2023/08/03 02:06:36;;;;;;;0.20;0.10;;;16.00;99.90;;;;;;5098833;28;20061;-65
2023/08/03 02:09:04;;;;;;;0.00;0.00;;;16.00;99.90;;;;;;5099071;28;20055;-66
2023/08/03 02:11:30;;;;;;;0.10;0.10;;;16.00;99.90;;;;;;5103948;27;20035;-66
2023/08/03 02:13:55;;;;;;;0.30;0.20;;;16.00;99.90;;;;;;5106415;27;20184;-68
2023/08/03 02:16:21;;;;;;;0.10;0.10;;;16.00;99.90;;;;;;5100078;28;20543;-68
2023/08/03 02:18:47;;;;;;;0.20;0.20;;;16.00;99.90;;;;;;5099512;27;20035;-68
2023/08/03 02:21:12;;;;;;;0.10;0.10;;;16.00;99.90;;;;;;5103523;27;20038;-68
2023/08/03 02:23:38;;;;;;;0.10;0.10;;;16.00;99.90;;;;;;5111517;27;20070;-69
2023/08/03 02:26:03;;;;;;;0.50;0.40;;;16.00;99.90;;;;;;5106799;27;20473;-68
2023/08/03 02:28:32;;;;;;;0.32;0.17;;;16.00;99.90;;;;;;5134724;27;20048;-68
2023/08/03 02:30:58;;;;;;;0.20;0.20;;;16.00;99.90;;;;;;5118181;27;20043;-70
2023/08/03 02:33:24;;;;;;;0.20;0.20;;;16.10;99.90;;;;;;5109893;27;20039;-67
2023/08/03 02:35:49;;;;;;;3.17;0.70;;;16.00;99.90;;;;;;5106310;27;20075;-71
2023/08/03 02:38:15;;;;;;;0.15;0.15;;;16.00;99.90;;;;;;5106380;27;20035;-69
2023/08/03 02:40:41;;;;;;;1.17;0.25;;;16.00;99.90;;;;;;5102523;27;20501;-69
2023/08/03 02:43:06;;;;;;;1.10;0.57;;;16.10;99.90;;;;;;5142710;27;20639;-70
2023/08/03 02:45:32;;;;;;;0.20;0.20;;;16.10;99.90;;;;;;5105495;27;20084;-71
2023/08/03 02:47:57;;;;;;;0.45;0.20;;;16.00;99.90;;;;;;5139119;27;20070;-70
2023/08/03 02:50:23;;;;;;;2.03;0.55;;;16.10;99.90;;;;;;5108312;27;20027;-69
2023/08/03 02:52:49;;;;;;;0.05;0.05;;;16.10;99.90;;;;;;5116512;27;20103;-71
2023/08/03 02:55:16;;;;;;;0.43;0.43;;;16.20;99.90;;;;;;5106048;28;20036;-69
2023/08/03 02:57:42;;;;;;;0.30;0.30;;;16.20;99.90;;;;;;5105325;27;20034;-70
2023/08/03 03:00:09;;;;;;;0.10;0.10;;;16.30;99.90;;;;;;5110199;27;20072;-70
2023/08/03 03:02:36;;;;;;;10.65;0.85;;;16.30;99.90;;;;;;5108700;27;20031;-72
2023/08/03 03:05:02;;;;;;;0.03;0.03;;;16.20;99.90;;;;;;5103783;27;20031;-72
2023/08/03 03:07:27;;;;;;;0.43;0.43;;;16.40;99.90;;;;;;5089898;27;20070;-72
2023/08/03 03:09:53;;;;;;;0.20;0.20;;;16.40;99.90;;;;;;5103092;27;20062;-70
2023/08/03 03:12:18;;;;;;;0.25;0.25;;;16.40;99.90;;;;;;5109117;27;20100;-72
2023/08/03 03:14:44;;;;;;;0.15;0.15;;;16.50;99.90;;;;;;5106947;27;20178;-69
2023/08/03 03:17:10;;;;;;;3.83;0.15;;;16.40;99.90;;;;;;5112409;27;20489;-71
2023/08/03 03:19:35;;;;;;;0.10;0.10;;;16.50;99.90;;;;;;5129213;27;20036;-73
2023/08/03 03:22:01;;;;;;;0.43;0.43;;;16.50;99.90;;;;;;5095962;28;20053;-71
2023/08/03 03:24:26;;;;;;;1.00;0.50;;;16.40;99.90;;;;;;5107437;27;20382;-75
2023/08/03 03:26:52;;;;;;;0.52;0.08;;;16.50;99.90;;;;;;5107389;27;20094;-72
2023/08/03 03:29:18;;;;;;;1.08;0.55;;;16.40;99.90;;;;;;5103292;27;20347;-72
2023/08/03 03:31:43;;;;;;;0.03;0.03;;;16.40;99.90;;;;;;5098379;27;20043;-71
2023/08/03 03:34:09;;;;;;;0.20;0.20;;;16.30;99.90;;;;;;5101962;27;20601;-73
2023/08/03 03:36:34;;;;;;;0.00;0.00;;;16.30;99.90;;;;;;5100543;27;20058;-71
2023/08/03 03:39:00;;;;;;;0.38;0.38;;;16.30;99.90;;;;;;5097498;27;20333;-70
2023/08/03 03:41:25;;;;;;;0.40;0.40;;;16.30;99.90;;;;;;5102439;27;20031;-73
2023/08/03 03:43:51;;;;;;;0.40;0.40;;;16.20;99.90;;;;;;5095044;27;20100;-73
2023/08/03 03:46:16;;;;;;;0.20;0.20;;;16.20;99.90;;;;;;5093215;27;20091;-69
2023/08/03 03:48:42;;;;;;;0.00;0.00;;;16.10;99.90;;;;;;5098699;27;20046;-69
2023/08/03 03:51:08;;;;;;;0.10;0.10;;;16.10;99.90;;;;;;5094066;27;20083;-71
2023/08/03 03:53:33;;;;;;;3.50;0.20;;;16.00;99.90;;;;;;5098229;27;20546;-70
2023/08/03 03:55:59;;;;;;;4.85;1.95;;;16.00;99.90;;;;;;5100961;27;20073;-70
2023/08/03 03:58:24;;;;;;;1.38;0.60;;;16.00;99.90;;;;;;5098488;27;20040;-71
2023/08/03 04:00:50;;;;;;;0.10;0.10;;;16.00;99.90;;;;;;5104371;27;20071;-73
2023/08/03 04:03:15;;;;;;;0.30;0.22;;;16.00;99.90;;;;;;5093534;27;21439;-71
2023/08/03 04:05:41;;;;;;;2.40;0.25;;;16.00;99.90;;;;;;5133580;27;20406;-71
2023/08/03 04:08:07;;;;;;;0.10;0.10;;;15.90;99.90;;;;;;5097036;27;20037;-70
2023/08/03 04:10:35;;;;;;;0.00;0.00;;;15.90;99.90;;;;;;5097259;27;20534;-70
2023/08/03 04:13:03;;;;;;;0.10;0.10;;;15.90;99.90;;;;;;5098627;27;20100;-71
2023/08/03 04:15:28;;;;;;;0.20;0.20;;;15.90;99.90;;;;;;5106023;27;20038;-72
2023/08/03 04:17:54;;;;;;;0.30;0.30;;;15.90;99.90;;;;;;5120778;27;20039;-70
2023/08/03 04:20:19;;;;;;;0.10;0.10;;;15.80;99.90;;;;;;5096053;27;20240;-71
2023/08/03 04:22:45;;;;;;;0.15;0.15;;;15.80;99.90;;;;;;5108306;27;20032;-71
2023/08/03 04:25:10;;;;;;;0.00;0.00;;;15.80;99.90;;;;;;5106505;27;20055;-71
2023/08/03 04:27:36;;;;;;;0.20;0.20;;;15.80;99.90;;;;;;5109748;27;20111;-71
2023/08/03 04:30:02;;;;;;;2.83;0.28;;;15.80;99.90;;;;;;5094130;27;20040;-72
2023/08/03 04:32:28;;;;;;;0.20;0.20;;;15.80;99.90;;;;;;5103129;27;20032;-72
2023/08/03 04:34:54;;;;;;;0.10;0.10;;;15.80;99.90;;;;;;5108918;27;20039;-71
2023/08/03 04:37:19;;;;;;;0.13;0.13;;;15.80;99.90;;;;;;5105380;27;20050;-73
2023/08/03 04:40:29;;;;;;;1.05;0.17;;;15.80;99.90;;;;;;5093403;27;20040;-70
2023/08/03 04:42:54;;;;;;;0.00;0.00;;;15.80;99.90;;;;;;5115978;27;20394;-71
2023/08/03 04:45:20;;;;;;;0.20;0.20;;;15.80;99.90;;;;;;5102284;27;20035;-71
2023/08/03 04:47:45;;;;;;;0.10;0.10;;;15.80;99.90;;;;;;5124062;27;20035;-71
2023/08/03 04:50:11;;;;;;;0.25;0.25;;;15.80;99.90;;;;;;5095571;28;20039;-71
2023/08/03 04:52:36;;;;;;;0.60;0.60;;;15.90;99.90;;;;;;5106060;27;20039;-73
2023/08/03 04:55:02;;;;;;;3.50;0.20;;;16.00;99.90;;;;;;5091937;27;20035;-74
2023/08/03 04:57:28;;;;;;;0.20;0.20;;;16.00;99.90;;;;;;5102380;28;20043;-72
2023/08/03 04:59:54;;;;;;;0.40;0.30;;;16.10;99.90;;;;;;5101574;28;20039;-73
2023/08/03 05:02:19;;;;;;;0.38;0.38;;;16.20;99.90;;;;;;5118059;27;20378;-72
2023/08/03 05:04:45;;;;;;;0.43;0.10;;;16.20;99.90;;;;;;5095732;28;20093;-73
2023/08/03 05:07:11;;;;;;;1.33;0.68;;;16.20;99.90;;;;;;5102915;28;20031;-73
2023/08/03 05:09:36;;;;;;;0.80;0.80;;;16.40;99.90;;;;;;5097602;28;20502;-73
2023/08/03 05:12:02;;;;;;;0.20;0.20;;;16.40;99.90;;;;;;5105873;28;20172;-72
2023/08/03 05:14:27;;;;;;;0.45;0.45;;;16.40;99.90;;;;;;5101718;28;20043;-72
2023/08/03 05:16:53;;;;;;;0.28;0.28;;;16.40;99.90;;;;;;5102863;27;20051;-74
2023/08/03 05:19:18;;;;;;;0.15;0.10;;;16.40;99.90;;;;;;5104161;27;20074;-72
2023/08/03 05:21:44;;;;;;;1.67;0.55;;;16.40;99.90;;;;;;5108286;27;20031;-72
2023/08/03 05:24:10;;;;;;;0.35;0.22;;;16.50;99.90;;;;;;5105390;27;20523;-71
2023/08/03 05:26:35;;;;;;;0.00;0.00;;;16.60;99.90;;;;;;5102968;27;20035;-72
2023/08/03 05:29:02;;;;;;;1.50;0.50;;;16.70;99.90;;;;;;5104841;27;20482;-74
2023/08/03 05:31:28;;;;;;;0.55;0.55;;;16.70;99.90;;;;;;5084734;27;20118;-73
2023/08/03 05:33:55;;;;;;;0.00;0.00;;;16.80;99.90;;;;;;5104121;27;20192;-73
2023/08/03 05:36:20;;;;;;;0.20;0.15;;;16.80;99.90;;;;;;5101327;27;20046;-72
2023/08/03 05:38:46;;;;;;;1.00;0.35;;;16.80;99.90;;;;;;5119862;27;20473;-71
2023/08/03 05:41:20;;;;;;;0.85;0.20;;;16.80;99.90;;;;;;5118867;27;20126;-69
2023/08/03 05:43:46;;;;;;;0.43;0.43;;;16.90;99.90;;;;;;5104497;27;20079;-71
2023/08/03 05:46:13;;;;;;;2.13;0.52;;;17.00;99.90;;;;;;5103957;27;20482;-70
2023/08/03 05:48:39;;;;;;;1.63;0.60;;;17.00;99.90;;;;;;5104940;27;20031;-69
2023/08/03 05:51:05;;;;;;;0.77;0.73;;;17.10;99.90;;;;;;5105708;27;20546;-72
2023/08/03 05:53:32;;;;;;;0.68;0.32;;;17.20;99.90;;;;;;5107395;27;20074;-70
2023/08/03 05:55:58;;;;;;;0.47;0.30;;;17.20;99.90;;;;;;5107810;27;20039;-70
2023/08/03 05:58:24;;;;;;;1.70;1.60;;;17.20;99.90;;;;;;5103847;27;20047;-72
2023/08/03 06:00:50;;;;;;;0.30;0.30;;;17.30;99.90;;;;;;5117394;27;20027;-70
2023/08/03 06:03:19;;;;;;;0.38;0.38;;;17.30;99.90;;;;;;5102423;27;20063;-72
2023/08/03 06:05:50;;;;;;;0.32;0.32;;;17.20;99.90;;;;;;5105080;27;20035;-70
2023/08/03 06:08:16;;;;;;;0.25;0.25;;;17.30;99.90;;;;;;5098774;27;20050;-71
2023/08/03 06:10:53;;;;;;;0.45;0.38;;;17.30;99.90;;;;;;5083362;27;20081;-71
2023/08/03 06:13:39;;;;;;;0.85;0.32;;;17.30;99.90;;;;;;5098184;27;20038;-71
2023/08/03 06:16:10;;;;;;;0.63;0.60;;;17.40;99.90;;;;;;5139921;27;20046;-71
2023/08/03 06:18:52;;;;;;;0.20;0.20;;;17.40;99.90;;;;;;5107481;27;20397;-72
2023/08/03 06:21:18;;;;;;;0.30;0.30;;;17.40;99.90;;;;;;5131850;27;20405;-73
2023/08/03 06:23:50;;;;;;;1.27;0.57;;;17.50;99.90;;;;;;5100823;28;20088;-72
2023/08/03 06:26:18;;;;;;;0.47;0.47;;;17.50;99.90;;;;;;5108608;27;20058;-71
2023/08/03 06:28:45;;;;;;;0.20;0.20;;;17.60;99.90;;;;;;5113458;27;20043;-70
2023/08/03 06:31:14;;;;;;;0.68;0.60;;;17.50;99.90;;;;;;5105046;27;20039;-70
2023/08/03 06:33:43;;;;;;;2.10;0.75;;;17.60;99.90;;;;;;5107526;27;20049;-74
2023/08/03 06:36:12;;;;;;;0.95;0.73;;;17.70;99.90;;;;;;5104067;27;20088;-71
2023/08/03 06:38:37;;;;;;;0.25;0.25;;;17.80;99.90;;;;;;5106744;27;20039;-72
2023/08/03 06:41:03;;;;;;;0.75;0.40;;;17.90;99.90;;;;;;5131468;27;20043;-72
2023/08/03 06:43:30;;;;;;;0.60;0.43;;;17.90;99.90;;;;;;5105072;27;20389;-72
2023/08/03 06:45:56;;;;;;;0.52;0.52;;;17.90;99.90;;;;;;5104735;27;20401;-74
2023/08/03 06:48:22;;;;;;;0.60;0.60;;;17.90;99.90;;;;;;5107172;27;20047;-74
2023/08/03 06:50:48;;;;;;;0.20;0.20;;;17.90;99.90;;;;;;5107211;27;20122;-72
2023/08/03 06:53:14;;;;;;;1.60;0.45;;;17.90;99.90;;;;;;5104811;27;20126;-71
2023/08/03 06:55:39;;;;;;;0.43;0.40;;;17.80;99.90;;;;;;5110336;27;20035;-70
2023/08/03 06:58:05;;;;;;;0.10;0.10;;;17.80;99.90;;;;;;5104405;27;20092;-72
2023/08/03 07:00:30;;;;;;;0.52;0.52;;;17.80;99.90;;;;;;5099916;28;20524;-73
2023/08/03 07:02:56;;;;;;;0.50;0.50;;;17.80;99.90;;;;;;5128625;27;20046;-75
2023/08/03 07:05:22;;;;;;;2.38;0.35;;;18.00;99.90;;;;;;5104767;27;20428;-76
2023/08/03 07:07:47;;;;;;;1.02;0.47;;;18.00;99.90;;;;;;5133356;27;20078;-73
2023/08/03 07:10:13;;;;;;;0.52;0.32;;;18.10;99.90;;;;;;5100521;27;20206;-73
2023/08/03 07:12:39;;;;;;;0.32;0.20;;;18.20;99.90;;;;;;5109268;27;20070;-72
2023/08/03 07:15:05;;;;;;;1.15;0.30;;;18.20;99.90;;;;;;5099487;27;20038;-72
2023/08/03 07:17:32;;;;;;;0.98;0.98;;;18.40;99.90;;;;;;5101147;27;20065;-75
2023/08/03 07:19:57;;;;;;;0.10;0.10;;;18.50;99.90;;;;;;5104719;27;20061;-75
2023/08/03 07:22:24;;;;;;;0.63;0.52;;;18.50;99.90;;;;;;5109442;27;20322;-74
2023/08/03 07:24:50;;;;;;;1.27;0.60;;;18.40;99.90;;;;;;5083981;28;20035;-76
2023/08/03 07:27:16;;;;;;;0.32;0.32;;;18.30;99.90;;;;;;5104820;27;20043;-74
2023/08/03 07:29:42;;;;;;;0.50;0.50;;;18.40;99.90;;;;;;5096662;27;20093;-71
2023/08/03 07:32:09;;;;;;;0.22;0.22;;;18.50;99.90;;;;;;5101794;27;20046;-71
2023/08/03 07:34:35;;;;;;;0.65;0.50;;;18.70;99.90;;;;;;5097447;27;20119;-71
2023/08/03 07:37:01;;;;;;;0.28;0.20;;;18.90;99.90;;;;;;5100920;27;20130;-70
2023/08/03 07:39:27;;;;;;;0.55;0.55;;;19.00;99.90;;;;;;5091085;27;20397;-69
2023/08/03 07:41:53;;;;;;;0.38;0.30;;;19.20;99.90;;;;;;5106116;27;20468;-70
2023/08/03 07:44:19;;;;;;;0.25;0.25;;;19.20;99.90;;;;;;5101010;27;20066;-70
2023/08/03 07:46:46;;;;;;;0.32;0.20;;;19.20;99.90;;;;;;5099910;27;20047;-71
2023/08/03 07:49:12;;;;;;;0.63;0.63;;;19.00;99.90;;;;;;5103746;27;20039;-71
2023/08/03 07:51:38;;;;;;;0.13;0.13;;;18.90;99.90;;;;;;5101645;27;20475;-72
2023/08/03 07:54:04;;;;;;;0.10;0.10;;;19.10;99.90;;;;;;5098357;27;20409;-72
2023/08/03 07:56:30;;;;;;;0.20;0.20;;;19.20;99.90;;;;;;5084046;27;20046;-74
2023/08/03 07:58:56;;;;;;;0.47;0.32;;;19.40;99.90;;;;;;5106435;27;20036;-68
2023/08/03 08:01:22;;;;;;;0.20;0.20;;;19.40;99.90;;;;;;5098811;28;20062;-72
2023/08/03 08:03:48;;;;;;;0.30;0.30;;;19.50;99.90;;;;;;5107618;27;20027;-69
2023/08/03 08:06:20;;;;;;;0.43;0.43;;;19.40;99.90;;;;;;5102100;27;20126;-71
2023/08/03 08:08:48;;;;;;;0.57;0.40;;;19.20;99.90;;;;;;5138102;27;20027;-69
2023/08/03 08:11:16;;;;;;;0.60;0.60;;;19.00;99.90;;;;;;5116297;27;20062;-70
2023/08/03 08:13:43;;;;;;;0.10;0.10;;;18.80;99.90;;;;;;5084498;28;20617;-71
2023/08/03 08:16:11;;;;;;;0.50;0.50;;;18.70;99.90;;;;;;5100610;27;20046;-72
2023/08/03 08:18:37;;;;;;;2.90;0.55;;;18.90;99.90;;;;;;5106300;27;20046;-70
2023/08/03 08:21:05;;;;;;;0.65;0.30;;;19.00;99.90;;;;;;5105736;27;20035;-71
2023/08/03 08:23:31;;;;;;;0.60;0.60;;;19.20;99.90;;;;;;5104732;27;20043;-70
2023/08/03 08:25:57;;;;;;;0.32;0.28;;;19.30;99.90;;;;;;5110304;27;20038;-68
2023/08/03 08:28:22;;;;;;;0.10;0.10;;;19.60;99.90;;;;;;5110719;27;20281;-70
2023/08/03 08:30:48;;;;;;;0.10;0.10;;;19.50;99.90;;;;;;5117185;27;20074;-69
2023/08/03 08:33:15;;;;;;;0.22;0.22;;;19.60;99.90;;;;;;5130064;27;20497;-69
2023/08/03 08:35:42;;;;;;;0.20;0.20;;;19.70;99.90;;;;;;5106237;27;20062;-71
2023/08/03 08:38:15;;;;;;;0.30;0.30;;;19.60;99.90;;;;;;5100953;27;20038;-69
2023/08/03 08:40:41;;;;;;;0.45;0.30;;;19.70;99.90;;;;;;5112881;27;20039;-70
2023/08/03 08:43:08;;;;;;;0.05;0.05;;;19.50;99.90;;;;;;5111889;27;20403;-70
2023/08/03 08:45:35;;;;;;;0.30;0.30;;;19.60;99.90;;;;;;5107801;27;20394;-70
2023/08/03 08:48:02;;;;;;;0.63;0.63;;;19.70;99.90;;;;;;5093834;28;20047;-69
2023/08/03 08:50:28;;;;;;;0.20;0.20;;;19.80;99.90;;;;;;5092675;28;20040;-70
2023/08/03 08:52:55;;;;;;;0.30;0.30;;;20.10;99.90;;;;;;5091673;28;20051;-70
2023/08/03 08:55:27;;;;;;;0.10;0.10;;;20.30;99.90;;;;;;5095595;28;20409;-68
2023/08/03 08:57:53;;;;;;;;;;;20.10;99.90;;;;;;5118547;27;20122;-70
2023/08/03 09:00:19;;;;;;;0.10;0.10;;;20.00;99.90;;;;;;5110512;28;20048;-68
2023/08/03 09:02:45;;;;;;;11.95;0.55;;;20.00;99.90;;;;;;5105913;28;20046;-69
2023/08/03 09:05:19;;;;;;;0.25;0.10;;;20.20;99.90;;;;;;5129413;27;20039;-69
2023/08/03 09:07:57;;;;;;;0.10;0.10;;;20.10;99.90;;;;;;5118222;28;20116;-72
2023/08/03 09:10:23;;;;;;;0.20;0.20;;;19.90;99.90;;;;;;5100047;28;20077;-68
2023/08/03 09:12:49;;;;;;;0.22;0.10;;;19.70;99.90;;;;;;5093004;28;20132;-70
2023/08/03 09:15:14;;;;;;;0.10;0.10;;;19.60;99.90;;;;;;5092084;28;20044;-68
2023/08/03 09:17:42;;;;;;;0.10;0.10;;;19.70;99.90;;;;;;5104732;28;20661;-69
2023/08/03 09:20:22;;;;;;;0.10;0.10;;;19.90;99.90;;;;;;5099714;28;20035;-70
2023/08/03 09:22:47;;;;;;;0.45;0.45;;;20.20;99.90;;;;;;5096615;27;20047;-73
2023/08/03 09:25:13;;;;;;;0.10;0.10;;;20.10;99.90;;;;;;5105404;28;20032;-70
2023/08/03 09:27:48;;;;;;;0.10;0.10;;;19.90;99.90;;;;;;5104351;28;20038;-69
2023/08/03 09:30:14;;;;;;;0.38;0.20;;;19.70;99.90;;;;;;5132359;27;20035;-70
2023/08/03 09:32:40;;;;;;;0.20;0.20;;;19.50;99.90;;;;;;5102378;28;20035;-69
2023/08/03 09:35:23;;;;;;;0.03;0.03;;;19.50;99.90;;;;;;5116581;28;20603;-69
2023/08/03 09:37:51;;;;;;;0.20;0.20;;;19.70;99.90;;;;;;5144344;27;20063;-70
2023/08/03 09:40:19;;;;;;;1.45;0.20;;;19.80;99.90;;;;;;5100841;28;20096;-70
2023/08/03 09:42:47;;;;;;;0.20;0.20;;;20.00;99.90;;;;;;5119255;28;20600;-68
2023/08/03 09:45:12;;;;;;;0.00;0.00;;;20.20;99.90;;;;;;5111051;28;20119;-68
2023/08/03 09:47:39;;;;;;;0.32;0.17;;;20.40;99.90;;;;;;5106034;28;20126;-69
2023/08/03 09:50:09;;;;;;;0.10;0.10;;;20.50;99.90;;;;;;5104580;28;20466;-69
2023/08/03 09:52:46;;;;;;;0.15;0.15;;;20.50;99.90;;;;;;5092726;28;20116;-69
2023/08/03 09:55:20;;;;;;;0.20;0.20;;;20.20;99.90;;;;;;5104020;28;20890;-69
2023/08/03 09:58:03;;;;;;;0.25;0.25;;;20.40;99.90;;;;;;5104609;28;20066;-70
2023/08/03 10:00:29;;;;;;;0.10;0.10;;;20.40;99.90;;;;;;5106217;28;20039;-71
2023/08/03 10:03:09;;;;;;;0.00;0.00;;;20.60;99.90;;;;;;5152381;27;20047;-69
2023/08/03 10:06:16;;;;;;;0.00;0.00;;;20.70;99.90;;;;;;5122125;27;20541;-69
2023/08/03 10:08:52;;;;;;;0.47;0.47;;;20.90;99.90;;;;;;5103654;27;20139;-68
2023/08/03 10:11:20;;;;;;;3.30;1.65;;;20.90;99.90;;;;;;5113850;27;20569;-68
2023/08/03 10:13:47;;;;;;;0.75;0.75;;;21.00;99.90;;;;;;5108015;27;20266;-67
2023/08/03 10:16:16;;;;;;;0.00;0.00;;;20.90;99.90;;;;;;5103195;27;20083;-69
2023/08/03 10:18:44;;;;;;;0.10;0.10;;;20.90;99.90;;;;;;5130932;27;20075;-69
2023/08/03 10:21:10;;;;;;;0.30;0.30;;;20.80;99.90;;;;;;5115906;27;20095;-69
2023/08/03 10:23:38;;;;;;;0.10;0.10;;;20.80;99.90;;;;;;5115677;27;20046;-67
2023/08/03 10:26:06;;;;;;;0.75;0.25;;;20.90;99.90;;;;;;5098911;27;20044;-68
2023/08/03 10:28:40;;;;;;;8.15;0.28;;;21.10;99.90;;;;;;5111740;27;20047;-69
2023/08/03 10:31:18;;;;;;;0.00;0.00;;;21.20;99.90;;;;;;5133240;27;20308;-71
2023/08/03 10:33:50;;;;;;;0.95;0.47;;;21.20;99.90;;;;;;5129304;27;20050;-71
2023/08/03 10:36:28;;;;;;;0.10;0.10;;;20.90;99.90;;;;;;5096885;28;20039;-68
2023/08/03 10:38:57;;;;;;;0.38;0.38;;;20.60;99.90;;;;;;5095701;28;20054;-68
2023/08/03 10:41:35;;;;;;;0.30;0.30;;;20.80;99.90;;;;;;5114429;27;20462;-70
2023/08/03 10:44:07;;;;;;;0.28;0.28;;;21.00;99.90;;;;;;5107562;27;20082;-68
2023/08/03 10:46:37;;;;;;;0.15;0.15;;;20.70;99.90;;;;;;5114626;27;20039;-69
2023/08/03 10:49:44;;;;;;;0.10;0.10;;;20.50;99.90;;;;;;5112899;27;20043;-71
2023/08/03 10:52:24;;;;;;;0.10;0.00;;;20.40;99.90;;;;;;5156786;27;20389;-71
2023/08/03 10:54:50;;;;;;;0.45;0.20;;;20.40;99.90;;;;;;5112583;27;20087;-70
2023/08/03 10:57:19;;;;;;;0.10;0.10;;;20.30;99.90;;;;;;5113567;27;20065;-69
2023/08/03 10:59:45;;;;;;;0.10;0.10;;;20.30;99.90;;;;;;5105057;27;20180;-69
2023/08/03 11:02:20;;;;;;;0.30;0.30;;;20.20;99.90;;;;;;5118062;27;20126;-68
2023/08/03 11:04:47;;;;;;;0.00;0.00;;;20.30;99.90;;;;;;5097776;27;20497;-68
2023/08/03 11:07:16;;;;;;;0.17;0.17;;;20.40;99.90;;;;;;5098470;27;20544;-69
2023/08/03 11:09:44;;;;;;;1.13;0.20;;;20.30;99.90;;;;;;5115847;27;20051;-69
2023/08/03 11:12:15;;;;;;;0.00;0.00;;;20.10;99.90;;;;;;5119026;27;20080;-70
2023/08/03 11:14:42;;;;;;;1.50;0.73;;;20.10;99.90;;;;;;5112564;27;20413;-70
2023/08/03 11:17:10;;;;;;;0.10;0.10;;;20.30;99.90;;;;;;5111323;27;20051;-70
2023/08/03 11:19:39;;;;;;;0.10;0.10;;;20.40;99.90;;;;;;5093650;28;20039;-68
2023/08/03 11:22:05;;;;;;;0.10;0.10;;;20.70;99.90;;;;;;5094549;28;20046;-68
2023/08/03 11:24:31;;;;;;;0.13;0.13;;;20.70;99.90;;;;;;5127557;27;20073;-71
2023/08/03 11:27:02;;;;;;;0.10;0.10;;;20.70;99.90;;;;;;5120252;27;20039;-70
2023/08/03 11:29:28;;;;;;;0.10;0.10;;;20.80;99.90;;;;;;5093483;27;20680;-70
2023/08/03 11:31:53;;;;;;;1.13;0.60;;;20.70;99.90;;;;;;5099868;27;20146;-68
2023/08/03 11:34:20;;;;;;;0.40;0.40;;;20.60;99.90;;;;;;5111807;27;20051;-71
2023/08/03 11:36:53;;;;;;;0.10;0.10;;;20.40;99.90;;;;;;5099922;28;20050;-68
2023/08/03 11:39:22;;;;;;;0.10;0.10;;;20.20;99.90;;;;;;5109901;27;20096;-68
2023/08/03 11:41:48;;;;;;;0.13;0.13;;;20.10;99.90;;;;;;5116549;27;20039;-68
2023/08/03 11:44:14;;;;;;;0.10;0.10;;;20.10;99.90;;;;;;5114042;27;20134;-70
2023/08/03 11:46:40;;;;;;;0.20;0.20;;;20.00;99.90;;;;;;5112018;27;20119;-68
2023/08/03 11:49:11;;;;;;;0.13;0.13;;;20.00;99.90;;;;;;5111067;27;20486;-69
2023/08/03 11:51:37;;;;;;;0.07;0.07;;;20.10;99.90;;;;;;5110569;27;20047;-69
2023/08/03 11:54:03;;;;;;;2.20;0.55;;;20.10;99.90;;;;;;5104897;27;20284;-68
2023/08/03 11:56:29;;;;;;;0.00;0.00;;;20.10;99.90;;;;;;5105701;27;20043;-69
2023/08/03 11:59:01;;;;;;;0.95;0.95;;;20.00;99.90;;;;;;5107898;27;20046;-69
2023/08/03 12:01:27;;;;;;;0.57;0.40;;;20.00;99.90;;;;;;5108194;27;20052;-67
2023/08/03 12:04:11;;;;;;;2.90;0.10;;;20.00;99.90;;;;;;5117786;27;20074;-69
2023/08/03 12:06:47;;;;;;;0.03;0.03;;;20.00;99.90;;;;;;5093149;28;20035;-69
2023/08/03 12:09:21;;;;;;;0.20;0.15;;;20.10;99.90;;;;;;5101644;27;20099;-68
2023/08/03 12:11:47;;;;;;;0.20;0.20;;;20.20;99.90;;;;;;5126555;27;20403;-67
2023/08/03 12:14:15;;;;;;;0.70;0.10;;;20.30;99.90;;;;;;5130694;27;20046;-68
2023/08/03 12:16:41;;;;;;;0.68;0.57;;;20.40;99.90;;;;;;5126311;27;20039;-69
2023/08/03 12:19:09;;;;;;;0.15;0.15;;;20.20;99.90;;;;;;5110797;27;20042;-68
2023/08/03 12:21:36;;;;;;;0.38;0.38;;;20.20;99.90;;;;;;5093045;28;20263;-68
2023/08/03 12:24:03;;;;;;;0.30;0.30;;;19.90;99.90;;;;;;5095457;27;20418;-69
2023/08/03 12:26:29;;;;;;;0.47;0.28;;;19.80;99.90;;;;;;5108987;28;20043;-69
2023/08/03 12:28:55;;;;;;;2.30;1.65;;;19.70;99.90;;;;;;5122878;27;20110;-68
2023/08/03 12:31:21;;;;;;;0.38;0.10;;;19.70;99.90;;;;;;5094454;27;20046;-69
2023/08/03 12:33:46;;;;;;;0.10;0.10;;;19.70;99.90;;;;;;5100749;27;20126;-69
2023/08/03 12:36:13;;;;;;;0.65;0.35;;;19.70;99.90;;;;;;5127742;27;20378;-69
2023/08/03 12:38:39;;;;;;;0.10;0.10;;;19.90;99.90;;;;;;5110984;27;20078;-68
2023/08/03 12:41:04;;;;;;;4.68;0.35;;;20.00;99.90;;;;;;5105635;27;20066;-71
2023/08/03 12:43:32;;;;;;;0.70;0.30;;;20.10;99.90;;;;;;5114894;27;20063;-70
2023/08/03 12:45:58;;;;;;;0.13;0.13;;;20.10;99.90;;;;;;5142631;27;20182;-70
2023/08/03 12:48:24;;;;;;;0.20;0.20;;;20.20;99.90;;;;;;5113233;27;20097;-70
2023/08/03 12:50:52;;;;;;;0.10;0.10;;;20.30;99.90;;;;;;5111182;27;20287;-70
2023/08/03 12:53:18;;;;;;;1.45;0.43;;;20.30;99.90;;;;;;5110533;27;20035;-71
2023/08/03 12:55:44;;;;;;;0.10;0.10;;;20.50;99.90;;;;;;5121301;27;20035;-72
2023/08/03 12:58:10;;;;;;;0.15;0.15;;;20.60;99.90;;;;;;5119508;27;20507;-68
2023/08/03 13:00:36;;;;;;;0.10;0.10;;;20.70;99.90;;;;;;5104236;27;20134;-70
2023/08/03 13:03:03;;;;;;;1.92;0.50;;;20.60;99.90;;;;;;5111278;28;20419;-66
2023/08/03 13:05:28;;;;;;;0.10;0.10;;;20.50;99.90;;;;;;5100579;28;20042;-68